Time;durP1;ratioP1;P1;durP2;ratioP2;P2;SDS_P1;SDS_P2;PMS_P1;PMS_P2;Temp;Humidity;BMP_temperature;BMP_pressure;BME280_temperature;BME280_humidity;BME280_pressure;Samples;Min_cycle;Max_cycle;Signal;HPM_P1;HPM_P2
2023/04/28 00:00:35;;;;;;;;;20.33;16.00;21.00;40.20;;;;;;109936;1252;55621;-66
2023/04/28 00:03:16;;;;;;;;;18.00;17.00;21.00;40.30;;;;;;109931;1257;54018;-66
2023/04/28 00:05:45;;;;;;;;;15.75;14.00;21.00;40.30;;;;;;109922;1257;49042;-67
2023/04/28 00:08:12;;;;;;;;;17.50;16.00;21.00;40.30;;;;;;110049;1252;50448;-66
2023/04/28 00:10:39;;;;;;;;;18.50;17.00;21.00;40.30;;;;;;109961;1253;45656;-66
2023/04/28 00:13:06;;;;;;;;;18.00;16.00;20.90;40.20;;;;;;110024;1252;55344;-66
2023/04/28 00:15:33;;;;;;;;;17.00;16.00;21.00;40.40;;;;;;109905;1252;53965;-65
2023/04/28 00:18:00;;;;;;;;;19.00;15.00;20.90;40.50;;;;;;109883;1256;49529;-66
2023/04/28 00:20:27;;;;;;;;;16.33;15.00;20.90;40.30;;;;;;109971;1255;49545;-66
2023/04/28 00:22:54;;;;;;;;;16.00;15.00;20.90;40.30;;;;;;109909;1258;45360;-67
2023/04/28 00:25:21;;;;;;;;;17.50;16.50;20.90;40.40;;;;;;110271;1256;56028;-67
2023/04/28 00:27:47;;;;;;;;;20.00;17.00;20.90;40.40;;;;;;110032;1252;53791;-67
2023/04/28 00:30:14;;;;;;;;;20.00;16.00;20.90;40.40;;;;;;109949;1252;49708;-67
2023/04/28 00:32:41;;;;;;;;;23.50;17.00;20.90;40.40;;;;;;109998;1252;48942;-66
2023/04/28 00:35:08;;;;;;;;;18.00;16.00;20.90;40.40;;;;;;110242;1252;45864;-67
2023/04/28 00:37:36;;;;;;;;;17.00;16.00;20.90;40.50;;;;;;110013;1252;55481;-65
2023/04/28 00:40:04;;;;;;;;;18.00;16.00;20.90;40.50;;;;;;110032;1252;53658;-65
2023/04/28 00:42:31;;;;;;;;;18.00;17.00;20.90;40.50;;;;;;109889;1254;50846;-67
2023/04/28 00:45:04;;;;;;;;;17.67;16.00;20.90;40.50;;;;;;110256;1252;50020;-67
2023/04/28 00:47:36;;;;;;;;;17.00;14.00;20.80;40.40;;;;;;110003;1254;46625;-65
2023/04/28 00:50:07;;;;;;;;;15.00;13.50;20.80;40.40;;;;;;110073;1252;55985;-64
2023/04/28 00:52:34;;;;;;;;;19.00;16.00;20.80;40.40;;;;;;110046;1254;54214;-65
2023/04/28 00:55:01;;;;;;;;;17.00;14.00;20.80;40.40;;;;;;110263;1255;49543;-66
2023/04/28 00:57:29;;;;;;;;;20.00;17.50;20.80;40.50;;;;;;110046;1257;49818;-65
2023/04/28 00:59:56;;;;;;;;;14.75;13.50;20.80;40.50;;;;;;110090;1257;45649;-64
2023/04/28 01:02:23;;;;;;;;;16.00;15.00;20.80;40.50;;;;;;110008;1254;55860;-63
2023/04/28 01:04:51;;;;;;;;;19.00;17.67;20.80;40.50;;;;;;109931;1252;53978;-65
2023/04/28 01:07:18;;;;;;;;;20.00;16.50;20.80;40.60;;;;;;109974;1252;49829;-65
2023/04/28 01:09:46;;;;;;;;;18.00;17.00;20.70;40.50;;;;;;109901;1252;49278;-63
2023/04/28 01:12:14;;;;;;;;;18.00;15.00;20.70;40.80;;;;;;109959;1252;45868;-64
2023/04/28 01:14:41;;;;;;;;;16.00;14.00;20.70;40.90;;;;;;109937;1254;55825;-64
2023/04/28 01:17:08;;;;;;;;;17.00;14.50;20.70;40.70;;;;;;109913;1257;53592;-66
2023/04/28 01:19:35;;;;;;;;;15.00;13.50;20.70;40.70;;;;;;109943;1256;50462;-65
2023/04/28 01:22:03;;;;;;;;;18.00;17.00;20.70;40.80;;;;;;109983;1252;49109;-64
2023/04/28 01:24:30;;;;;;;;;19.50;16.50;20.70;40.80;;;;;;109907;1252;45614;-66
2023/04/28 01:26:57;;;;;;;;;14.00;13.33;20.70;40.90;;;;;;109969;1255;56513;-66
2023/04/28 01:29:24;;;;;;;;;16.00;15.00;20.70;40.90;;;;;;109892;1252;53963;-65
2023/04/28 01:31:51;;;;;;;;;16.00;15.00;20.70;40.90;;;;;;110001;1256;49570;-65
2023/04/28 01:34:18;;;;;;;;;18.33;15.33;20.70;40.90;;;;;;109890;1255;49039;-65
2023/04/28 01:36:45;;;;;;;;;23.00;15.75;20.60;40.90;;;;;;109921;1257;45722;-65
2023/04/28 01:39:12;;;;;;;;;19.67;16.67;20.60;41.10;;;;;;109873;1257;56317;-65
2023/04/28 01:41:39;;;;;;;;;24.00;16.00;20.60;41.00;;;;;;109942;1252;53827;-66
2023/04/28 01:44:07;;;;;;;;;16.00;14.00;20.60;41.00;;;;;;109933;1252;49214;-66
2023/04/28 01:46:33;;;;;;;;;19.00;16.50;20.60;41.10;;;;;;110010;1253;49650;-64
2023/04/28 01:49:00;;;;;;;;;17.50;16.00;20.60;41.30;;;;;;110071;1252;45551;-64
2023/04/28 01:51:27;;;;;;;;;16.00;14.50;20.60;41.00;;;;;;109990;1257;55262;-65
2023/04/28 01:53:54;;;;;;;;;16.50;14.25;20.60;41.00;;;;;;109979;1253;53567;-65
2023/04/28 01:56:21;;;;;;;;;18.00;15.00;20.60;41.00;;;;;;110297;1252;50123;-65
2023/04/28 01:58:48;;;;;;;;;18.33;17.00;20.60;41.00;;;;;;110047;1253;50254;-65
2023/04/28 02:01:15;;;;;;;;;16.00;15.00;20.60;41.00;;;;;;110024;1256;45287;-65
2023/04/28 02:03:42;;;;;;;;;16.00;15.00;20.60;41.30;;;;;;110038;1252;55439;-64
2023/04/28 02:06:09;;;;;;;;;17.00;16.00;20.60;41.20;;;;;;110265;1254;54892;-65
2023/04/28 02:08:36;;;;;;;;;14.67;13.67;20.50;41.00;;;;;;110035;1258;49638;-66
2023/04/28 02:11:03;;;;;;;;;17.50;15.50;20.60;41.10;;;;;;110023;1255;49264;-66
2023/04/28 02:13:30;;;;;;;;;16.00;14.00;20.50;41.00;;;;;;110028;1255;45931;-66
2023/04/28 02:16:00;;;;;;;;;17.00;14.33;20.50;41.00;;;;;;110286;1254;55183;-66
2023/04/28 02:18:27;;;;;;;;;18.00;15.00;20.50;41.00;;;;;;109926;1256;55438;-65
2023/04/28 02:20:54;;;;;;;;;15.33;14.33;20.50;41.00;;;;;;109975;1253;49416;-65
2023/04/28 02:23:21;;;;;;;;;16.00;14.00;20.50;41.20;;;;;;109914;1252;49383;-65
2023/04/28 02:25:48;;;;;;;;;18.50;17.00;20.50;41.10;;;;;;110189;1255;46905;-65
2023/04/28 02:28:15;;;;;;;;;15.50;14.00;20.50;41.10;;;;;;109917;1252;56054;-64
2023/04/28 02:30:42;;;;;;;;;17.00;16.00;20.50;41.00;;;;;;109988;1252;53891;-64
2023/04/28 02:33:09;;;;;;;;;16.00;14.00;20.40;41.20;;;;;;110053;1257;49044;-65
2023/04/28 02:35:36;;;;;;;;;16.50;13.50;20.40;41.00;;;;;;110030;1256;49496;-65
2023/04/28 02:38:02;;;;;;;;;18.00;16.00;20.40;41.30;;;;;;110038;1257;45233;-64
2023/04/28 02:40:29;;;;;;;;;15.00;14.00;20.40;40.70;;;;;;109986;1256;55411;-64
2023/04/28 02:42:56;;;;;;;;;16.00;15.00;20.40;41.10;;;;;;109929;1254;53920;-65
2023/04/28 02:45:23;;;;;;;;;16.00;15.00;20.40;41.10;;;;;;109963;1252;50079;-64
2023/04/28 02:47:50;;;;;;;;;15.00;13.67;20.30;41.40;;;;;;109922;1256;49464;-66
2023/04/28 02:50:18;;;;;;;;;17.75;13.50;20.30;41.70;;;;;;109975;1252;46154;-65
2023/04/28 02:52:45;;;;;;;;;16.00;14.00;20.30;41.20;;;;;;109963;1257;56154;-66
2023/04/28 02:55:12;;;;;;;;;16.00;13.50;20.30;41.20;;;;;;110223;1256;54000;-66
2023/04/28 02:57:39;;;;;;;;;21.00;15.50;20.30;41.30;;;;;;110063;1256;50623;-66
2023/04/28 03:00:07;;;;;;;;;15.00;14.00;20.30;41.20;;;;;;110008;1255;49748;-65
2023/04/28 03:02:34;;;;;;;;;14.00;13.00;20.30;41.20;;;;;;109986;1257;45937;-66
2023/04/28 03:05:01;;;;;;;;;18.00;14.00;20.20;41.10;;;;;;110226;1256;55370;-67
2023/04/28 03:07:28;;;;;;;;;16.00;14.67;20.20;41.20;;;;;;110047;1252;53228;-65
2023/04/28 03:09:54;;;;;;;;;15.75;13.00;20.20;41.30;;;;;;109885;1257;49839;-65
2023/04/28 03:12:21;;;;;;;;;15.00;13.00;20.20;41.10;;;;;;109977;1253;49988;-65
2023/04/28 03:14:48;;;;;;;;;14.00;12.00;20.20;41.10;;;;;;110146;1252;46853;-66
2023/04/28 03:17:15;;;;;;;;;14.00;13.00;20.20;41.00;;;;;;109983;1252;55310;-65
2023/04/28 03:19:42;;;;;;;;;17.00;13.00;20.20;40.90;;;;;;109989;1252;53727;-65
2023/04/28 03:22:09;;;;;;;;;14.67;13.67;20.20;41.00;;;;;;109930;1252;50102;-65
2023/04/28 03:24:36;;;;;;;;;15.00;14.00;20.20;40.90;;;;;;109998;1256;49953;-66
2023/04/28 03:27:03;;;;;;;;;14.50;12.50;20.20;41.10;;;;;;110043;1254;45900;-65
2023/04/28 03:29:30;;;;;;;;;14.00;13.00;20.10;41.00;;;;;;109937;1252;55330;-66
2023/04/28 03:31:57;;;;;;;;;16.00;15.00;20.10;41.00;;;;;;110050;1252;53755;-66
2023/04/28 03:34:24;;;;;;;;;14.00;13.00;20.10;41.30;;;;;;110258;1256;49237;-68
2023/04/28 03:36:51;;;;;;;;;15.00;13.50;20.10;41.20;;;;;;110037;1257;50637;-64
2023/04/28 03:39:18;;;;;;;;;13.00;11.00;20.10;41.20;;;;;;109931;1256;45215;-64
2023/04/28 03:41:45;;;;;;;;;17.00;14.00;20.10;41.10;;;;;;109933;1252;55216;-64
2023/04/28 03:44:12;;;;;;;;;15.00;13.00;20.10;40.80;;;;;;109961;1252;54276;-64
2023/04/28 03:46:39;;;;;;;;;16.00;13.00;20.10;40.70;;;;;;110066;1257;50022;-64
2023/04/28 03:49:06;;;;;;;;;14.50;13.00;20.10;40.60;;;;;;109905;1252;50169;-63
2023/04/28 03:51:33;;;;;;;;;13.00;12.00;20.10;40.40;;;;;;109930;1252;45525;-65
2023/04/28 03:54:00;;;;;;;;;17.00;14.00;20.10;40.40;;;;;;109999;1252;55885;-64
2023/04/28 03:56:28;;;;;;;;;16.00;14.00;20.10;42.90;;;;;;109984;1256;53614;-66
2023/04/28 03:58:54;;;;;;;;;15.00;14.00;20.10;43.20;;;;;;110052;1252;50493;-64
2023/04/28 04:01:21;;;;;;;;;15.00;13.00;20.20;42.90;;;;;;109984;1254;49449;-63
2023/04/28 04:03:48;;;;;;;;;17.50;15.00;20.20;42.60;;;;;;110051;1255;46433;-62
2023/04/28 04:06:16;;;;;;;;;16.00;13.00;20.20;42.00;;;;;;110080;1252;55722;-66
2023/04/28 04:08:43;;;;;;;;;94.00;64.00;20.20;41.80;;;;;;110088;1257;54023;-67
2023/04/28 04:11:10;;;;;;;;;80.50;52.00;20.20;51.10;;;;;;109913;1252;49684;-66
2023/04/28 04:13:37;;;;;;;;;61.00;45.00;20.30;50.10;;;;;;109995;1252;49280;-65
2023/04/28 04:16:04;;;;;;;;;67.00;43.00;20.40;49.30;;;;;;110296;1252;46061;-67
2023/04/28 04:18:31;;;;;;;;;66.00;45.00;20.50;48.80;;;;;;110068;1254;55927;-64
2023/04/28 04:20:58;;;;;;;;;61.50;40.00;20.60;48.60;;;;;;110044;1256;53663;-64
2023/04/28 04:23:25;;;;;;;;;58.00;42.00;20.70;48.00;;;;;;109929;1252;49973;-65
2023/04/28 04:25:52;;;;;;;;;59.50;39.00;20.80;47.70;;;;;;110409;1252;49932;-63
2023/04/28 04:28:19;;;;;;;;;59.00;40.00;20.90;47.30;;;;;;109945;1252;45138;-65
2023/04/28 04:30:46;;;;;;;;;53.00;39.50;21.00;46.70;;;;;;109896;1257;55910;-65
2023/04/28 04:33:13;;;;;;;;;57.00;40.00;21.00;46.00;;;;;;110004;1252;53884;-65
2023/04/28 04:35:40;;;;;;;;;56.00;39.00;21.00;45.90;;;;;;109979;1254;49673;-64
2023/04/28 04:38:07;;;;;;;;;61.00;41.00;21.00;45.30;;;;;;109845;1254;50184;-65
2023/04/28 04:40:34;;;;;;;;;66.75;41.00;21.00;45.30;;;;;;109903;1252;46863;-65
2023/04/28 04:43:01;;;;;;;;;53.00;38.00;21.00;44.90;;;;;;109955;1253;56031;-65
2023/04/28 04:45:29;;;;;;;;;53.00;35.00;21.00;44.50;;;;;;109781;1252;53475;-65
2023/04/28 04:47:56;;;;;;;;;54.00;36.00;21.00;44.40;;;;;;109892;1252;49132;-65
2023/04/28 04:50:24;;;;;;;;;51.00;35.00;20.90;44.00;;;;;;109371;1255;797158;-65
2023/04/28 04:52:51;;;;;;;;;52.00;34.00;20.90;43.50;;;;;;109860;1258;46805;-64
2023/04/28 04:55:18;;;;;;;;;47.50;35.00;20.80;43.00;;;;;;109977;1252;55861;-64
2023/04/28 04:57:45;;;;;;;;;46.00;32.67;20.70;42.80;;;;;;109956;1257;54058;-65
2023/04/28 05:00:14;;;;;;;;;47.00;31.50;20.70;42.60;;;;;;109917;1257;49366;-65
2023/04/28 05:02:41;;;;;;;;;49.00;34.00;20.70;42.50;;;;;;109956;1256;49072;-65
2023/04/28 05:05:08;;;;;;;;;46.00;32.00;20.60;42.30;;;;;;110120;1252;45617;-66
2023/04/28 05:07:35;;;;;;;;;45.00;31.00;20.60;42.20;;;;;;109919;1253;55802;-65
2023/04/28 05:10:03;;;;;;;;;40.33;31.33;20.60;42.10;;;;;;109983;1252;54268;-65
2023/04/28 05:12:30;;;;;;;;;39.00;31.00;20.50;41.60;;;;;;109906;1253;49722;-65
2023/04/28 05:14:57;;;;;;;;;47.00;31.50;20.40;41.70;;;;;;109902;1252;50099;-64
2023/04/28 05:17:24;;;;;;;;;37.00;27.00;20.40;41.60;;;;;;109975;1252;45493;-65
2023/04/28 05:19:51;;;;;;;;;45.00;31.00;20.40;41.80;;;;;;110076;1252;55734;-66
2023/04/28 05:22:17;;;;;;;;;42.33;31.00;20.40;41.40;;;;;;109867;1257;54039;-65
2023/04/28 05:24:45;;;;;;;;;43.00;27.50;20.30;41.30;;;;;;109929;1252;50508;-65
2023/04/28 05:27:11;;;;;;;;;38.00;28.00;20.30;41.30;;;;;;109923;1252;50351;-65
2023/04/28 05:29:38;;;;;;;;;36.50;28.00;20.30;41.20;;;;;;109965;1252;45693;-66
2023/04/28 05:32:05;;;;;;;;;36.00;22.00;20.30;41.10;;;;;;109971;1257;56363;-64
2023/04/28 05:34:32;;;;;;;;;30.33;24.00;20.20;40.90;;;;;;109954;1257;54330;-65
2023/04/28 05:37:00;;;;;;;;;35.00;28.00;20.20;40.90;;;;;;109904;1252;49760;-65
2023/04/28 05:39:27;;;;;;;;;34.75;26.50;20.20;40.80;;;;;;109890;1252;50178;-68
2023/04/28 05:41:53;;;;;;;;;39.00;25.00;20.20;40.80;;;;;;109915;1257;45350;-65
2023/04/28 05:44:20;;;;;;;;;35.67;21.67;20.10;40.60;;;;;;110002;1252;55792;-66
2023/04/28 05:46:47;;;;;;;;;29.50;23.00;20.20;40.70;;;;;;109934;1252;54303;-66
2023/04/28 05:49:14;;;;;;;;;34.00;23.50;20.20;40.70;;;;;;109942;1256;49945;-66
2023/04/28 05:51:43;;;;;;;;;29.00;23.00;20.20;40.40;;;;;;109984;1258;49213;-66
2023/04/28 05:54:10;;;;;;;;;28.00;22.00;20.20;40.40;;;;;;109964;1256;45495;-66
2023/04/28 05:56:37;;;;;;;;;34.00;23.50;20.20;40.90;;;;;;109926;1252;55916;-66
2023/04/28 05:59:04;;;;;;;;;35.00;22.00;20.10;40.20;;;;;;109881;1255;53700;-65
2023/04/28 06:01:31;;;;;;;;;30.00;21.50;20.10;40.20;;;;;;109900;1257;49164;-67
2023/04/28 06:03:58;;;;;;;;;28.33;22.00;20.10;40.20;;;;;;109942;1252;49130;-65
2023/04/28 06:06:26;;;;;;;;;26.50;23.00;20.10;40.20;;;;;;109929;1252;46179;-65
2023/04/28 06:08:53;;;;;;;;;25.00;21.00;20.10;40.20;;;;;;109921;1255;57241;-65
2023/04/28 06:11:21;;;;;;;;;29.00;24.00;20.10;40.10;;;;;;109908;1252;54922;-66
2023/04/28 06:13:49;;;;;;;;;27.00;20.00;20.10;40.10;;;;;;109873;1257;48975;-65
2023/04/28 06:16:17;;;;;;;;;30.00;21.50;20.00;39.90;;;;;;109916;1252;49341;-64
2023/04/28 06:18:44;;;;;;;;;33.00;26.00;20.10;40.00;;;;;;109931;1252;45597;-65
2023/04/28 06:21:11;;;;;;;;;32.00;21.00;20.10;39.90;;;;;;109976;1257;55078;-65
2023/04/28 06:23:39;;;;;;;;;23.00;18.00;20.10;40.00;;;;;;109932;1257;53294;-65
2023/04/28 06:26:07;;;;;;;;;21.50;19.00;20.10;40.10;;;;;;109962;1253;50343;-65
2023/04/28 06:28:35;;;;;;;;;28.50;21.00;20.10;39.80;;;;;;109929;1252;49863;-65
2023/04/28 06:31:02;;;;;;;;;25.00;20.00;20.10;39.70;;;;;;109904;1252;46116;-66
2023/04/28 06:33:29;;;;;;;;;24.00;20.00;20.10;39.70;;;;;;109986;1257;56084;-66
2023/04/28 06:35:56;;;;;;;;;23.00;20.00;20.10;39.90;;;;;;110031;1252;54385;-65
2023/04/28 06:38:23;;;;;;;;;22.00;19.00;20.10;39.70;;;;;;109956;1257;49159;-65
2023/04/28 06:40:50;;;;;;;;;23.00;19.67;20.10;39.80;;;;;;109946;1255;49825;-64
2023/04/28 06:43:17;;;;;;;;;22.50;20.00;20.10;39.50;;;;;;109962;1252;46201;-66
2023/04/28 06:45:44;;;;;;;;;19.00;15.00;20.20;39.60;;;;;;109971;1257;56718;-63
2023/04/28 06:48:11;;;;;;;;;26.00;19.00;20.20;39.60;;;;;;109984;1256;54018;-64
2023/04/28 06:50:38;;;;;;;;;26.00;18.67;20.20;39.50;;;;;;109923;1258;50019;-64
2023/04/28 06:53:06;;;;;;;;;17.00;14.50;20.20;39.50;;;;;;109941;1252;49848;-63
2023/04/28 06:55:33;;;;;;;;;27.00;18.00;20.20;39.40;;;;;;109984;1252;46517;-66
2023/04/28 06:58:00;;;;;;;;;22.00;20.00;20.30;39.50;;;;;;109945;1252;56083;-66
2023/04/28 07:00:27;;;;;;;;;25.00;17.00;20.30;39.40;;;;;;109945;1256;53735;-67
2023/04/28 07:02:54;;;;;;;;;27.50;17.00;20.30;39.30;;;;;;110006;1257;50014;-67
2023/04/28 07:05:21;;;;;;;;;16.50;15.00;20.40;39.80;;;;;;110055;1256;49673;-67
2023/04/28 07:07:48;;;;;;;;;17.00;16.00;20.40;39.30;;;;;;110010;1253;45147;-66
2023/04/28 07:10:16;;;;;;;;;19.75;15.75;20.40;39.40;;;;;;109969;1252;55607;-65
2023/04/28 07:12:43;;;;;;;;;26.00;19.00;20.50;39.00;;;;;;109973;1257;54561;-64
2023/04/28 07:15:10;;;;;;;;;20.75;18.00;20.50;39.10;;;;;;109716;1257;49494;-64
2023/04/28 07:17:37;;;;;;;;;19.25;16.75;20.50;39.00;;;;;;110022;1255;48948;-64
2023/04/28 07:20:05;;;;;;;;;18.50;15.00;20.60;39.00;;;;;;110018;1257;45476;-65
2023/04/28 07:22:32;;;;;;;;;23.00;18.00;20.60;39.00;;;;;;109965;1252;56007;-67
2023/04/28 07:24:59;;;;;;;;;18.00;15.50;20.70;39.00;;;;;;109985;1252;54840;-64
2023/04/28 07:27:26;;;;;;;;;17.33;14.00;20.70;39.00;;;;;;109935;1252;49055;-64
2023/04/28 07:29:53;;;;;;;;;16.00;13.33;20.70;39.10;;;;;;109710;1254;50542;-65
2023/04/28 07:32:21;;;;;;;;;17.00;16.00;20.80;38.90;;;;;;109977;1255;45809;-65
2023/04/28 07:34:47;;;;;;;;;20.00;16.50;20.80;38.80;;;;;;110010;1256;55727;-65
2023/04/28 07:37:15;;;;;;;;;26.00;17.00;20.80;38.80;;;;;;109939;1257;53860;-64
2023/04/28 07:39:42;;;;;;;;;20.50;17.50;20.90;38.50;;;;;;109914;1252;49496;-64
2023/04/28 07:42:09;;;;;;;;;17.00;13.00;20.90;38.70;;;;;;109888;1257;50190;-65
2023/04/28 07:44:36;;;;;;;;;17.00;14.00;21.00;38.80;;;;;;109975;1252;45387;-65
2023/04/28 07:47:03;;;;;;;;;15.50;12.50;21.00;38.70;;;;;;109942;1257;56255;-64
2023/04/28 07:49:31;;;;;;;;;19.33;16.00;21.10;38.80;;;;;;109958;1257;54959;-65
2023/04/28 07:51:58;;;;;;;;;17.00;16.00;21.10;38.60;;;;;;109934;1257;49362;-64
2023/04/28 07:54:25;;;;;;;;;18.00;14.00;21.20;38.80;;;;;;105415;1254;3011037;-65
2023/04/28 07:56:52;;;;;;;;;20.67;16.00;21.20;38.60;;;;;;109990;1252;35354;-64
2023/04/28 07:59:19;;;;;;;;;16.00;13.00;21.30;38.60;;;;;;110060;1252;36523;-65
2023/04/28 08:01:46;;;;;;;;;15.00;13.00;21.30;38.50;;;;;;109953;1256;54917;-65
2023/04/28 08:04:13;;;;;;;;;15.00;14.00;21.40;38.50;;;;;;110035;1255;50251;-65
2023/04/28 08:06:39;;;;;;;;;;;21.40;38.40;;;;;;109983;1252;49937;-65
2023/04/28 08:09:07;;;;;;;;;16.00;14.00;21.40;38.60;;;;;;109937;1257;45971;-65
2023/04/28 08:11:33;;;;;;;;;18.00;15.00;21.50;38.60;;;;;;109933;1257;55325;-65
2023/04/28 08:14:19;;;;;;;;;17.00;13.00;21.50;38.40;;;;;;110059;1257;53722;-65
2023/04/28 08:17:03;;;;;;;;;16.33;15.00;21.50;38.40;;;;;;109961;1252;50007;-65
2023/04/28 08:19:30;;;;;;;;;17.00;14.00;21.60;38.40;;;;;;110030;1257;49239;-65
2023/04/28 08:21:58;;;;;;;;;15.00;13.50;21.60;38.40;;;;;;109922;1252;45835;-66
2023/04/28 08:24:43;;;;;;;;;17.00;13.00;21.70;38.60;;;;;;110014;1257;56858;-66
2023/04/28 08:27:10;;;;;;;;;18.00;14.00;21.70;38.40;;;;;;109886;1257;54339;-65
2023/04/28 08:29:39;;;;;;;;;18.00;13.00;21.70;38.30;;;;;;109989;1254;49536;-65
2023/04/28 08:32:06;;;;;;;;;15.00;12.00;21.80;38.40;;;;;;109938;1253;49766;-65
2023/04/28 08:34:33;;;;;;;;;19.00;14.00;21.80;38.30;;;;;;110019;1252;45583;-64
2023/04/28 08:37:01;;;;;;;;;14.50;12.00;21.90;38.30;;;;;;109915;1254;56318;-65
2023/04/28 08:39:30;;;;;;;;;16.00;14.00;21.90;38.20;;;;;;109981;1253;53708;-66
2023/04/28 08:41:57;;;;;;;;;15.00;13.00;22.00;38.20;;;;;;109946;1257;49136;-65
2023/04/28 08:44:24;;;;;;;;;13.00;12.00;22.10;38.30;;;;;;109975;1252;49124;-65
2023/04/28 08:46:53;;;;;;;;;15.00;13.00;22.10;38.20;;;;;;110034;1252;46025;-65
2023/04/28 08:49:22;;;;;;;;;12.00;11.00;22.10;38.30;;;;;;109989;1252;55822;-67
2023/04/28 08:51:56;;;;;;;;;16.00;13.00;22.20;38.10;;;;;;110002;1255;54028;-66
2023/04/28 08:54:29;;;;;;;;;14.00;13.00;22.30;38.10;;;;;;110024;1252;48928;-65
2023/04/28 08:56:57;;;;;;;;;15.00;12.50;22.30;38.20;;;;;;109944;1258;49611;-66
2023/04/28 08:59:24;;;;;;;;;14.00;12.67;22.40;38.00;;;;;;109864;1256;45656;-65
2023/04/28 09:01:51;;;;;;;;;14.50;12.00;22.40;37.90;;;;;;109959;1252;55008;-64
2023/04/28 09:04:19;;;;;;;;;14.00;13.00;22.40;38.10;;;;;;109957;1252;54483;-64
2023/04/28 09:06:46;;;;;;;;;17.00;12.50;22.50;38.00;;;;;;109923;1252;49831;-66
2023/04/28 09:09:29;;;;;;;;;16.25;12.00;22.50;37.90;;;;;;109954;1256;49617;-63
2023/04/28 09:11:58;;;;;;;;;13.00;11.67;22.60;37.90;;;;;;110013;1252;45943;-66
2023/04/28 09:14:27;;;;;;;;;14.00;12.00;22.70;37.90;;;;;;110051;1256;55834;-66
2023/04/28 09:16:54;;;;;;;;;13.00;12.00;22.70;37.80;;;;;;109895;1254;53896;-66
2023/04/28 09:19:21;;;;;;;;;13.50;10.00;22.80;38.00;;;;;;109914;1252;48980;-64
2023/04/28 09:21:54;;;;;;;;;13.00;11.33;22.80;37.70;;;;;;109895;1252;49881;-65
2023/04/28 09:24:32;;;;;;;;;12.00;11.00;22.80;37.70;;;;;;109969;1257;45512;-66
2023/04/28 09:27:01;;;;;;;;;13.00;12.00;22.80;37.70;;;;;;109935;1252;55448;-65
2023/04/28 09:29:30;;;;;;;;;16.00;15.00;22.90;37.70;;;;;;109790;1254;53803;-65
2023/04/28 09:32:17;;;;;;;;;11.00;9.67;22.90;37.60;;;;;;109954;1257;49664;-65
2023/04/28 09:34:52;;;;;;;;;11.00;10.00;23.00;37.70;;;;;;109978;1256;49361;-66
2023/04/28 09:37:21;;;;;;;;;16.00;12.00;23.00;37.60;;;;;;109954;1253;46677;-67
2023/04/28 09:39:52;;;;;;;;;16.00;12.00;23.10;37.60;;;;;;109903;1254;55242;-65
2023/04/28 09:42:39;;;;;;;;;13.50;12.50;23.10;37.70;;;;;;109912;1254;54382;-64
2023/04/28 09:45:11;;;;;;;;;11.00;9.67;23.20;37.60;;;;;;109676;1252;49521;-66
2023/04/28 09:47:42;;;;;;;;;11.00;10.00;23.30;37.60;;;;;;109992;1252;50024;-68
2023/04/28 09:50:13;;;;;;;;;12.00;11.00;23.30;37.60;;;;;;109941;1252;45699;-68
2023/04/28 09:52:41;;;;;;;;;13.00;11.00;23.40;37.50;;;;;;109961;1255;56153;-66
2023/04/28 09:55:10;;;;;;;;;13.00;11.00;23.40;37.20;;;;;;109820;1252;53561;-67
2023/04/28 09:57:38;;;;;;;;;11.00;10.00;23.40;37.20;;;;;;109896;1252;49667;-66
2023/04/28 10:00:08;;;;;;;;;13.75;12.75;23.50;37.50;;;;;;109918;1258;49972;-66
2023/04/28 10:02:36;;;;;;;;;14.50;11.50;23.50;37.20;;;;;;109981;1252;46874;-67
2023/04/28 10:05:07;;;;;;;;;13.00;12.00;23.60;37.20;;;;;;110057;1257;55719;-71
2023/04/28 10:07:34;;;;;;;;;11.00;10.00;23.60;37.30;;;;;;109874;1258;53745;-69
2023/04/28 10:10:02;;;;;;;;;11.00;10.00;23.70;37.50;;;;;;109859;1252;50059;-70
2023/04/28 10:12:31;;;;;;;;;11.67;10.67;23.70;37.20;;;;;;109989;1252;49367;-71
2023/04/28 10:14:59;;;;;;;;;13.00;10.00;23.70;37.20;;;;;;110246;1252;46124;-72
2023/04/28 10:17:28;;;;;;;;;12.00;11.00;23.80;37.20;;;;;;110036;1253;56258;-72
2023/04/28 10:19:56;;;;;;;;;12.00;10.00;23.80;37.10;;;;;;109905;1257;53522;-72
2023/04/28 10:22:38;;;;;;;;;11.00;10.00;23.90;37.20;;;;;;110007;1252;50420;-72
2023/04/28 10:25:11;;;;;;;;;11.00;10.00;23.90;37.10;;;;;;110473;1255;50617;-75
2023/04/28 10:27:42;;;;;;;;;13.50;11.50;23.90;37.10;;;;;;110134;1257;46828;-74
2023/04/28 10:30:14;;;;;;;;;13.00;10.00;24.00;37.10;;;;;;110047;1257;55772;-73
2023/04/28 10:32:42;;;;;;;;;11.33;10.33;24.10;36.60;;;;;;110073;1252;54498;-73
2023/04/28 10:35:27;;;;;;;;;11.00;9.00;24.10;37.10;;;;;;110407;1256;50519;-72
2023/04/28 10:38:07;;;;;;;;;11.00;10.00;24.10;37.10;;;;;;110035;1254;50293;-72
2023/04/28 10:40:40;;;;;;;;;12.00;11.00;24.20;37.10;;;;;;110023;1256;45560;-70
2023/04/28 10:43:09;;;;;;;;;13.00;10.00;24.20;37.00;;;;;;110069;1257;55812;-73
2023/04/28 10:45:52;;;;;;;;;12.33;11.33;24.20;37.20;;;;;;110259;1256;54139;-72
2023/04/28 10:48:43;;;;;;;;;10.50;9.50;24.30;37.10;;;;;;109902;1257;49264;-69
2023/04/28 10:51:11;;;;;;;;;11.00;10.00;24.30;37.00;;;;;;109965;1256;49505;-67
2023/04/28 10:53:44;;;;;;;;;11.50;10.50;24.40;37.30;;;;;;110022;1257;46035;-66
2023/04/28 10:56:17;;;;;;;;;10.00;9.00;24.40;37.00;;;;;;110360;1256;56011;-67
2023/04/28 10:58:45;;;;;;;;;12.67;10.00;24.40;37.00;;;;;;110031;1256;53811;-68
2023/04/28 11:01:21;;;;;;;;;11.00;10.00;24.50;36.50;;;;;;110092;1252;49162;-67
2023/04/28 11:03:48;;;;;;;;;13.00;11.00;24.50;37.00;;;;;;110054;1257;49488;-67
2023/04/28 11:06:39;;;;;;;;;11.50;10.00;24.50;37.00;;;;;;110350;1256;45726;-67
2023/04/28 11:09:14;;;;;;;;;10.00;9.00;24.50;37.20;;;;;;110060;1252;55441;-67
2023/04/28 11:12:01;;;;;;;;;11.00;9.00;24.60;37.20;;;;;;110061;1252;54964;-67
2023/04/28 11:14:28;;;;;;;;;10.00;9.00;24.60;36.90;;;;;;110283;1255;49987;-67
2023/04/28 11:16:59;;;;;;;;;11.00;10.00;24.60;36.90;;;;;;110046;1256;49624;-67
2023/04/28 11:19:36;;;;;;;;;9.67;8.67;24.60;36.90;;;;;;109987;1252;45701;-68
2023/04/28 11:22:22;;;;;;;;;15.25;11.75;24.60;36.90;;;;;;110006;1257;55946;-67
2023/04/28 11:24:56;;;;;;;;;11.00;10.00;24.70;36.90;;;;;;110262;1257;54568;-67
2023/04/28 11:27:24;;;;;;;;;11.33;10.33;24.70;37.00;;;;;;110119;1256;49845;-67
2023/04/28 11:29:52;;;;;;;;;12.50;11.00;24.70;36.90;;;;;;110053;1252;49001;-68
2023/04/28 11:32:45;;;;;;;;;11.50;10.50;24.70;36.80;;;;;;110021;1257;45683;-67
2023/04/28 11:35:12;;;;;;;;;13.00;10.00;24.70;36.80;;;;;;110209;1253;56715;-67
2023/04/28 11:37:40;;;;;;;;;12.25;9.75;24.80;36.90;;;;;;110025;1252;54157;-67
2023/04/28 11:40:11;;;;;;;;;9.00;8.00;24.80;36.90;;;;;;110082;1253;49407;-67
2023/04/28 11:42:48;;;;;;;;;13.50;10.75;24.80;37.00;;;;;;110047;1252;49158;-68
2023/04/28 11:45:15;;;;;;;;;13.50;9.50;24.80;36.80;;;;;;110283;1255;45476;-66
2023/04/28 11:47:42;;;;;;;;;14.00;12.00;24.80;36.90;;;;;;110011;1257;56816;-67
2023/04/28 11:50:09;;;;;;;;;11.00;10.00;24.80;36.80;;;;;;110003;1252;53774;-67
2023/04/28 11:52:47;;;;;;;;;11.00;9.00;24.80;36.80;;;;;;110062;1257;50200;-68
2023/04/28 11:55:16;;;;;;;;;11.25;8.75;24.80;36.80;;;;;;110293;1252;49221;-67
2023/04/28 11:57:43;;;;;;;;;11.67;10.67;24.80;37.00;;;;;;110019;1257;45655;-67
2023/04/28 12:00:20;;;;;;;;;12.00;10.00;24.80;37.10;;;;;;110003;1252;56164;-67
2023/04/28 12:02:47;;;;;;;;;15.00;12.67;24.90;36.80;;;;;;110017;1252;53379;-67
2023/04/28 12:05:14;;;;;;;;;13.00;12.00;24.80;37.00;;;;;;110372;1257;50619;-67
2023/04/28 12:07:43;;;;;;;;;11.00;10.00;24.80;36.80;;;;;;110057;1257;49273;-67
2023/04/28 12:10:17;;;;;;;;;11.00;8.00;24.80;36.80;;;;;;110066;1253;47756;-66
2023/04/28 12:12:46;;;;;;;;;10.00;9.00;24.80;36.80;;;;;;109651;1257;55901;-67
2023/04/28 12:15:13;;;;;;;;;11.00;10.00;24.90;37.00;;;;;;110038;1252;53717;-67
2023/04/28 12:17:41;;;;;;;;;11.00;10.00;24.80;36.80;;;;;;109928;1252;49715;-66
2023/04/28 12:20:10;;;;;;;;;12.33;10.00;24.80;36.80;;;;;;109942;1252;49813;-67
2023/04/28 12:22:48;;;;;;;;;11.50;10.50;24.80;36.80;;;;;;109926;1252;45657;-67
2023/04/28 12:25:16;;;;;;;;;14.33;10.00;24.80;37.00;;;;;;110243;1256;55737;-67